Time;durP1;ratioP1;P1;durP2;ratioP2;P2;SDS_P1;SDS_P2;PMS_P1;PMS_P2;Temp;Humidity;BMP_temperature;BMP_pressure;BME280_temperature;BME280_humidity;BME280_pressure;Samples;Min_cycle;Max_cycle;Signal;HPM_P1;HPM_P2
2022/07/26 00:01:02;;;;;;;;;;;23.30;99.90;;;;;;4588161;19;20400;-33
2022/07/26 00:02:32;;;;;;;;;;;23.30;99.90;;;;;;4592397;19;19923;-33
2022/07/26 00:04:03;;;;;;;;;;;23.10;99.90;;;;;;4590375;19;19986;-32
2022/07/26 00:05:37;;;;;;;;;;;22.80;99.90;;;;;;4591910;19;19940;-33
2022/07/26 00:07:08;;;;;;;;;;;22.60;99.90;;;;;;4592414;19;19923;-33
2022/07/26 00:08:39;;;;;;;;;;;22.40;99.90;;;;;;4591520;19;19918;-32
2022/07/26 00:10:10;;;;;;;;;;;22.20;99.90;;;;;;4592731;19;20336;-32
2022/07/26 00:11:41;;;;;;;;;;;22.10;99.90;;;;;;4591616;19;19927;-33
2022/07/26 00:13:12;;;;;;;;;;;22.00;99.90;;;;;;4592887;19;19914;-33
2022/07/26 00:14:43;;;;;;;;;;;21.90;99.90;;;;;;4592166;19;19937;-32
2022/07/26 00:16:14;;;;;;;;;;;21.80;99.90;;;;;;4592641;19;19915;-32
2022/07/26 00:17:45;;;;;;;;;;;21.70;99.90;;;;;;4593254;19;19932;-32
2022/07/26 00:19:16;;;;;;;;;;;21.70;99.90;;;;;;4591970;19;19945;-32
2022/07/26 00:20:47;;;;;;;;;;;21.60;99.90;;;;;;4591997;19;19918;-32
2022/07/26 00:22:33;;;;;;;;;;;21.60;99.90;;;;;;4592276;19;19927;-32
2022/07/26 00:24:05;;;;;;;;;;;21.60;99.90;;;;;;4592796;19;19922;-33
2022/07/26 00:25:36;;;;;;;;;;;21.50;99.90;;;;;;4591787;19;19937;-33
2022/07/26 00:27:06;;;;;;;;;;;21.50;99.90;;;;;;4592666;19;20313;-34
2022/07/26 00:28:37;;;;;;;;;;;21.50;99.90;;;;;;4591746;19;20241;-34
2022/07/26 00:30:09;;;;;;;;;;;21.50;99.90;;;;;;4592794;19;19918;-33
2022/07/26 00:31:40;;;;;;;;;;;21.40;99.90;;;;;;4592683;19;20325;-33
2022/07/26 00:33:10;;;;;;;;;;;21.40;99.90;;;;;;4591879;19;19915;-33
2022/07/26 00:34:41;;;;;;;;;;;21.40;99.90;;;;;;4592386;19;20317;-34
2022/07/26 00:36:13;;;;;;;;;;;21.40;99.90;;;;;;4593399;19;19929;-33
2022/07/26 00:37:44;;;;;;;;;;;21.40;99.90;;;;;;4590026;19;19918;-33
2022/07/26 00:39:15;;;;;;;;;;;21.40;99.90;;;;;;4592034;19;19915;-34
2022/07/26 00:40:46;;;;;;;;;;;21.40;99.90;;;;;;4591387;19;19911;-33
2022/07/26 00:42:17;;;;;;;;;;;21.40;99.90;;;;;;4590956;19;19990;-31
2022/07/26 00:43:55;;;;;;;;;;;21.30;99.90;;;;;;4592483;19;19915;-34
2022/07/26 00:45:26;;;;;;;;;;;21.30;99.90;;;;;;4592513;19;19935;-33
2022/07/26 00:46:56;;;;;;;;;;;21.30;99.90;;;;;;4591977;19;19918;-31
2022/07/26 00:48:28;;;;;;;;;;;21.30;99.90;;;;;;4591983;19;20301;-33
2022/07/26 00:49:58;;;;;;;;;;;21.30;99.90;;;;;;4591874;19;19926;-32
2022/07/26 00:51:29;;;;;;;;;;;21.30;99.90;;;;;;4592041;19;19919;-32
2022/07/26 00:53:00;;;;;;;;;;;21.30;99.90;;;;;;4592229;19;19937;-33
2022/07/26 00:54:31;;;;;;;;;;;21.30;99.90;;;;;;4591180;19;20320;-32
2022/07/26 00:56:02;;;;;;;;;;;21.20;99.90;;;;;;4592647;19;19949;-33
2022/07/26 00:57:34;;;;;;;;;;;21.20;99.90;;;;;;4592441;19;19915;-32
2022/07/26 00:59:05;;;;;;;;;;;21.20;99.90;;;;;;4592628;19;19915;-34
2022/07/26 01:00:36;;;;;;;;;;;21.20;99.90;;;;;;4592636;19;19919;-33
2022/07/26 01:02:07;;;;;;;;;;;21.20;99.90;;;;;;4592249;19;19963;-34
2022/07/26 01:03:38;;;;;;;;;;;21.20;99.90;;;;;;4591297;19;19915;-32
2022/07/26 01:05:09;;;;;;;;;;;21.20;99.90;;;;;;4591544;19;19936;-33
2022/07/26 01:06:40;;;;;;;;;;;21.20;99.90;;;;;;4592276;19;19919;-33
2022/07/26 01:08:11;;;;;;;;;;;21.20;99.90;;;;;;4591908;19;20321;-33
2022/07/26 01:09:42;;;;;;;;;;;21.20;99.90;;;;;;4592112;19;19937;-32
2022/07/26 01:11:13;;;;;;;;;;;21.20;99.90;;;;;;4590911;19;19919;-33
2022/07/26 01:12:44;;;;;;;;;;;21.10;99.90;;;;;;4591078;19;19935;-33
2022/07/26 01:14:19;;;;;;;;;;;21.20;99.90;;;;;;4591896;19;19915;-33
2022/07/26 01:15:50;;;;;;;;;;;21.20;99.90;;;;;;4592060;19;19918;-34
2022/07/26 01:17:21;;;;;;;;;;;21.20;99.90;;;;;;4592813;19;19926;-33
2022/07/26 01:18:52;;;;;;;;;;;21.20;99.90;;;;;;4591775;19;19915;-35
2022/07/26 01:20:23;;;;;;;;;;;21.20;99.90;;;;;;4591270;19;19914;-33
2022/07/26 01:21:54;;;;;;;;;;;21.20;99.90;;;;;;4591274;19;19915;-33
2022/07/26 01:23:25;;;;;;;;;;;21.10;99.90;;;;;;4591381;19;19922;-33
2022/07/26 01:24:56;;;;;;;;;;;21.10;99.90;;;;;;4591215;19;19922;-32
2022/07/26 01:26:27;;;;;;;;;;;21.10;99.90;;;;;;4591820;19;20244;-33
2022/07/26 01:27:58;;;;;;;;;;;21.10;99.90;;;;;;4591870;19;19926;-34
2022/07/26 01:29:29;;;;;;;;;;;21.10;99.90;;;;;;4591704;19;20255;-32
2022/07/26 01:31:00;;;;;;;;;;;21.10;99.90;;;;;;4591704;19;19985;-32
2022/07/26 01:32:31;;;;;;;;;;;21.20;99.90;;;;;;4592181;19;19915;-33
2022/07/26 01:34:02;;;;;;;;;;;21.10;99.90;;;;;;4592227;19;19911;-33
2022/07/26 01:35:33;;;;;;;;;;;21.10;99.90;;;;;;4591443;19;20380;-34
2022/07/26 01:37:04;;;;;;;;;;;21.10;99.90;;;;;;4591098;19;20348;-33
2022/07/26 01:38:35;;;;;;;;;;;21.10;99.90;;;;;;4591772;19;19992;-32
2022/07/26 01:40:06;;;;;;;;;;;21.10;99.90;;;;;;4591487;19;19915;-34
2022/07/26 01:41:37;;;;;;;;;;;21.10;99.90;;;;;;4590135;19;19919;-32
2022/07/26 01:43:09;;;;;;;;;;;21.10;99.90;;;;;;4590512;19;19926;-33
2022/07/26 01:44:39;;;;;;;;;;;21.10;99.90;;;;;;4591952;19;19919;-33
2022/07/26 01:46:12;;;;;;;;;;;21.10;99.90;;;;;;4590943;19;19931;-32
2022/07/26 01:47:48;;;;;;;;;;;21.10;99.90;;;;;;4589588;19;19955;-33
2022/07/26 01:49:20;;;;;;;;;;;21.10;99.90;;;;;;4587655;19;19978;-35
2022/07/26 01:50:51;;;;;;;;;;;21.10;99.90;;;;;;4589627;19;20352;-33
2022/07/26 01:52:21;;;;;;;;;;;21.10;99.90;;;;;;4591380;19;19910;-33
2022/07/26 01:53:52;;;;;;;;;;;21.00;99.90;;;;;;4588807;19;20682;-34
2022/07/26 01:55:24;;;;;;;;;;;21.00;99.90;;;;;;4591338;19;19985;-33
2022/07/26 01:56:54;;;;;;;;;;;21.00;99.90;;;;;;4591180;19;19926;-34
2022/07/26 01:58:25;;;;;;;;;;;21.00;99.90;;;;;;4590464;19;19911;-33
2022/07/26 01:59:56;;;;;;;;;;;21.00;99.90;;;;;;4590551;19;19911;-33
2022/07/26 02:01:27;;;;;;;;;;;21.00;99.90;;;;;;4588115;19;19927;-31
2022/07/26 02:02:58;;;;;;;;;;;21.00;99.90;;;;;;4589529;19;20313;-32
2022/07/26 02:06:19;;;;;;;;;;;21.00;99.90;;;;;;4590378;19;20377;-32
2022/07/26 02:07:50;;;;;;;;;;;21.00;99.90;;;;;;4590566;19;19978;-33
2022/07/26 02:09:21;;;;;;;;;;;21.00;99.90;;;;;;4590650;19;19918;-32
2022/07/26 02:11:01;;;;;;;;;;;21.00;99.90;;;;;;4590670;19;19919;-33
2022/07/26 02:12:32;;;;;;;;;;;21.00;99.90;;;;;;4589141;19;19922;-32
2022/07/26 02:14:03;;;;;;;;;;;21.00;99.90;;;;;;4589812;19;19998;-33
2022/07/26 02:15:34;;;;;;;;;;;21.00;99.90;;;;;;4590175;19;19919;-33
2022/07/26 02:17:05;;;;;;;;;;;21.00;99.90;;;;;;4590654;19;19923;-35
2022/07/26 02:18:41;;;;;;;;;;;21.00;99.90;;;;;;4590548;19;19934;-33
2022/07/26 02:20:15;;;;;;;;;;;21.00;99.90;;;;;;4590872;19;19918;-34
2022/07/26 02:21:46;;;;;;;;;;;21.00;99.90;;;;;;4589599;19;19936;-34
2022/07/26 02:23:17;;;;;;;;;;;21.00;99.90;;;;;;4590723;19;19923;-33
2022/07/26 02:24:48;;;;;;;;;;;21.00;99.90;;;;;;4590868;19;19915;-33
2022/07/26 02:26:19;;;;;;;;;;;21.00;99.90;;;;;;4590458;19;19922;-33
2022/07/26 02:27:50;;;;;;;;;;;21.00;99.90;;;;;;4591055;19;19915;-33
2022/07/26 02:29:21;;;;;;;;;;;21.00;99.90;;;;;;4590519;19;20321;-33
2022/07/26 02:30:52;;;;;;;;;;;21.00;99.90;;;;;;4589774;19;19927;-33
2022/07/26 02:32:23;;;;;;;;;;;21.00;99.90;;;;;;4590145;19;20392;-35
2022/07/26 02:33:54;;;;;;;;;;;21.00;99.90;;;;;;4590321;19;19914;-34
2022/07/26 02:35:25;;;;;;;;;;;21.00;99.90;;;;;;4590100;19;20298;-34
2022/07/26 02:36:56;;;;;;;;;;;21.00;99.90;;;;;;4589870;19;19919;-35
2022/07/26 02:38:27;;;;;;;;;;;21.00;99.90;;;;;;4590049;19;19919;-34
2022/07/26 02:39:58;;;;;;;;;;;21.00;99.90;;;;;;4590352;19;20313;-33
2022/07/26 02:41:28;;;;;;;;;;;21.00;99.90;;;;;;4589640;19;19930;-35
2022/07/26 02:42:59;;;;;;;;;;;21.00;99.90;;;;;;4589492;19;19923;-33
2022/07/26 02:44:31;;;;;;;;;;;21.00;99.90;;;;;;4590987;19;19971;-34
2022/07/26 02:46:01;;;;;;;;;;;21.00;99.90;;;;;;4590178;19;19919;-32
2022/07/26 02:47:32;;;;;;;;;;;21.00;99.90;;;;;;4588613;19;20156;-33
2022/07/26 02:49:03;;;;;;;;;;;21.00;99.90;;;;;;4589129;19;19915;-35
2022/07/26 02:50:35;;;;;;;;;;;21.00;99.90;;;;;;4590031;19;19991;-33
2022/07/26 02:52:06;;;;;;;;;;;21.00;99.90;;;;;;4590138;19;20240;-33
2022/07/26 02:53:36;;;;;;;;;;;21.00;99.90;;;;;;4589904;19;19937;-35
2022/07/26 02:55:08;;;;;;;;;;;21.00;99.90;;;;;;4590241;19;19926;-33
2022/07/26 02:56:39;;;;;;;;;;;21.00;99.90;;;;;;4590178;19;19970;-34
2022/07/26 02:58:10;;;;;;;;;;;21.00;99.90;;;;;;4590271;19;20375;-33
2022/07/26 02:59:41;;;;;;;;;;;21.00;99.90;;;;;;4588275;19;19915;-33
2022/07/26 03:01:11;;;;;;;;;;;21.00;99.90;;;;;;4591385;19;19922;-33
2022/07/26 03:02:43;;;;;;;;;;;21.00;99.90;;;;;;4594802;19;19930;-33
2022/07/26 03:04:13;;;;;;;;;;;21.00;99.90;;;;;;4594749;19;19911;-34
2022/07/26 03:05:44;;;;;;;;;;;21.00;99.90;;;;;;4594911;19;19971;-33
2022/07/26 03:07:15;;;;;;;;;;;21.00;99.90;;;;;;4592577;19;19919;-32
2022/07/26 03:08:47;;;;;;;;;;;21.00;99.90;;;;;;4594208;19;19929;-34
2022/07/26 03:10:17;;;;;;;;;;;21.00;99.90;;;;;;4594943;19;19936;-33
2022/07/26 03:11:48;;;;;;;;;;;21.00;99.90;;;;;;4594784;19;19915;-35
2022/07/26 03:13:19;;;;;;;;;;;21.00;99.90;;;;;;4593737;19;20317;-33
2022/07/26 03:14:50;;;;;;;;;;;21.00;99.90;;;;;;4592877;19;19915;-33
2022/07/26 03:16:21;;;;;;;;;;;21.00;99.90;;;;;;4593922;19;20321;-33
2022/07/26 03:17:52;;;;;;;;;;;21.00;99.90;;;;;;4595041;19;19919;-34
2022/07/26 03:19:23;;;;;;;;;;;21.00;99.90;;;;;;4592530;19;19918;-33
2022/07/26 03:20:54;;;;;;;;;;;21.00;99.90;;;;;;4593196;19;19987;-33
2022/07/26 03:22:25;;;;;;;;;;;21.00;99.90;;;;;;4594863;19;20343;-35
2022/07/26 03:23:56;;;;;;;;;;;21.00;99.90;;;;;;4594331;19;19915;-35
2022/07/26 03:25:29;;;;;;;;;;;21.00;99.90;;;;;;4593913;19;19922;-33
2022/07/26 03:27:00;;;;;;;;;;;21.00;99.90;;;;;;4594670;19;19966;-33
2022/07/26 03:28:31;;;;;;;;;;;21.00;99.90;;;;;;4593020;19;19923;-33
2022/07/26 03:30:03;;;;;;;;;;;21.00;99.90;;;;;;4592900;19;19945;-34
2022/07/26 03:31:34;;;;;;;;;;;21.00;99.90;;;;;;4592748;19;20252;-33
2022/07/26 03:33:05;;;;;;;;;;;21.00;99.90;;;;;;4592622;19;19975;-33
2022/07/26 03:34:36;;;;;;;;;;;21.10;99.90;;;;;;4594027;19;20248;-33
2022/07/26 03:36:09;;;;;;;;;;;21.00;99.90;;;;;;4593924;19;19922;-33
2022/07/26 03:37:40;;;;;;;;;;;21.00;99.90;;;;;;4593219;19;19919;-32
2022/07/26 03:39:11;;;;;;;;;;;21.00;99.90;;;;;;4594494;19;19936;-33
2022/07/26 03:40:42;;;;;;;;;;;21.00;99.90;;;;;;4593879;19;19930;-35
2022/07/26 03:42:13;;;;;;;;;;;21.00;99.90;;;;;;4593386;19;20312;-32
2022/07/26 03:43:44;;;;;;;;;;;21.00;99.90;;;;;;4593099;19;19963;-32
2022/07/26 03:45:16;;;;;;;;;;;21.00;99.90;;;;;;4594492;19;19918;-35
2022/07/26 03:46:46;;;;;;;;;;;21.00;99.90;;;;;;4593396;19;19975;-33
2022/07/26 03:48:17;;;;;;;;;;;21.00;99.90;;;;;;4592947;19;19922;-34
2022/07/26 03:49:48;;;;;;;;;;;20.90;99.90;;;;;;4593852;19;19922;-33
2022/07/26 03:51:20;;;;;;;;;;;21.00;99.90;;;;;;4594430;19;19911;-33
2022/07/26 03:52:50;;;;;;;;;;;21.00;99.90;;;;;;4593374;19;19925;-35
2022/07/26 03:54:22;;;;;;;;;;;21.00;99.90;;;;;;4593417;19;19922;-33
2022/07/26 03:57:42;;;;;;;;;;;21.00;99.90;;;;;;4593983;19;20013;-32
2022/07/26 03:59:13;;;;;;;;;;;21.00;99.90;;;;;;4593381;19;19937;-33
2022/07/26 04:00:45;;;;;;;;;;;20.90;99.90;;;;;;4592946;19;19925;-33
2022/07/26 04:02:16;;;;;;;;;;;21.00;99.90;;;;;;4593687;19;19918;-33
2022/07/26 04:03:47;;;;;;;;;;;21.00;99.90;;;;;;4592575;19;19940;-32
2022/07/26 04:05:18;;;;;;;;;;;21.00;99.90;;;;;;4592862;19;19910;-33
2022/07/26 04:06:49;;;;;;;;;;;21.00;99.90;;;;;;4593194;19;20278;-33
2022/07/26 04:08:19;;;;;;;;;;;21.00;99.90;;;;;;4594327;19;20217;-33
2022/07/26 04:09:51;;;;;;;;;;;21.00;99.90;;;;;;4593171;19;20004;-33
2022/07/26 04:11:22;;;;;;;;;;;21.00;99.90;;;;;;4593370;19;19915;-33
2022/07/26 04:12:53;;;;;;;;;;;21.00;99.90;;;;;;4590730;19;20352;-33
2022/07/26 04:14:23;;;;;;;;;;;21.10;99.90;;;;;;4592522;19;19911;-33
2022/07/26 04:15:55;;;;;;;;;;;21.10;99.90;;;;;;4593107;19;20333;-33
2022/07/26 04:17:26;;;;;;;;;;;21.10;99.90;;;;;;4593302;19;19930;-33
2022/07/26 04:18:56;;;;;;;;;;;21.10;99.90;;;;;;4593230;19;20252;-33
2022/07/26 04:20:28;;;;;;;;;;;21.10;99.90;;;;;;4592452;19;19986;-33
2022/07/26 04:21:59;;;;;;;;;;;21.20;99.90;;;;;;4591436;19;19982;-33
2022/07/26 04:23:30;;;;;;;;;;;21.20;99.90;;;;;;4593208;19;19919;-33
2022/07/26 04:25:01;;;;;;;;;;;21.20;99.90;;;;;;4593142;19;19949;-31
2022/07/26 04:26:32;;;;;;;;;;;21.20;99.90;;;;;;4591932;19;19911;-35
2022/07/26 04:28:03;;;;;;;;;;;21.20;99.90;;;;;;4592601;19;19918;-35
2022/07/26 04:29:34;;;;;;;;;;;21.20;99.90;;;;;;4592909;19;19922;-33
2022/07/26 04:31:05;;;;;;;;;;;21.20;99.90;;;;;;4592934;19;19927;-33
2022/07/26 04:32:36;;;;;;;;;;;21.20;99.90;;;;;;4592611;19;19986;-32
2022/07/26 04:34:07;;;;;;;;;;;21.20;99.90;;;;;;4592751;19;20333;-32
2022/07/26 04:35:38;;;;;;;;;;;21.20;99.90;;;;;;4591924;19;19952;-33
2022/07/26 04:37:09;;;;;;;;;;;21.20;99.90;;;;;;4591784;19;19983;-32
2022/07/26 04:38:40;;;;;;;;;;;21.20;99.90;;;;;;4592591;19;19923;-33
2022/07/26 04:40:15;;;;;;;;;;;21.20;99.90;;;;;;4592481;19;20336;-33
2022/07/26 04:41:46;;;;;;;;;;;21.20;99.90;;;;;;4592236;19;19914;-33
2022/07/26 04:43:17;;;;;;;;;;;21.20;99.90;;;;;;4592036;19;19923;-33
2022/07/26 04:44:48;;;;;;;;;;;21.20;99.90;;;;;;4592429;19;20241;-31
2022/07/26 04:46:19;;;;;;;;;;;21.20;99.90;;;;;;4592595;19;19978;-33
2022/07/26 04:47:50;;;;;;;;;;;21.20;99.90;;;;;;4591526;19;19911;-33
2022/07/26 04:49:21;;;;;;;;;;;21.20;99.90;;;;;;4590283;19;19910;-32
2022/07/26 04:50:52;;;;;;;;;;;21.30;99.90;;;;;;4592575;19;19942;-33
2022/07/26 04:52:23;;;;;;;;;;;21.30;99.90;;;;;;4592615;19;19982;-34
2022/07/26 04:53:54;;;;;;;;;;;21.40;99.90;;;;;;4591733;19;19911;-32
2022/07/26 04:55:25;;;;;;;;;;;21.60;99.90;;;;;;4592083;19;19937;-33
2022/07/26 04:56:56;;;;;;;;;;;21.80;99.90;;;;;;4590306;19;19970;-35
2022/07/26 04:58:27;;;;;;;;;;;21.90;99.90;;;;;;4591009;19;20342;-33
2022/07/26 04:59:58;;;;;;;;;;;22.00;99.90;;;;;;4591357;19;19955;-33
2022/07/26 05:01:29;;;;;;;;;;;22.10;99.90;;;;;;4589781;19;20353;-33
2022/07/26 05:03:00;;;;;;;;;;;22.10;99.90;;;;;;4592461;19;19915;-33
2022/07/26 05:04:31;;;;;;;;;;;22.20;99.90;;;;;;4592067;19;19911;-33
2022/07/26 05:06:02;;;;;;;;;;;22.30;99.90;;;;;;4591247;19;20344;-33
2022/07/26 05:07:46;;;;;;;;;;;22.30;99.90;;;;;;4591830;19;19911;-32
2022/07/26 05:09:17;;;;;;;;;;;22.40;99.90;;;;;;4590248;19;19919;-33
2022/07/26 05:10:49;;;;;;;;;;;22.40;99.90;;;;;;4590692;19;19923;-34
2022/07/26 05:12:19;;;;;;;;;;;22.40;99.90;;;;;;4591202;19;20340;-32
2022/07/26 05:13:50;;;;;;;;;;;22.50;99.90;;;;;;4591127;19;19915;-32
2022/07/26 05:15:21;;;;;;;;;;;22.50;99.90;;;;;;4591931;19;20316;-34
2022/07/26 05:16:52;;;;;;;;;;;22.50;99.90;;;;;;4591513;19;19925;-32
2022/07/26 05:18:23;;;;;;;;;;;22.50;99.90;;;;;;4590410;19;19915;-33
2022/07/26 05:19:54;;;;;;;;;;;22.60;99.90;;;;;;4589576;19;19950;-34
2022/07/26 05:21:26;;;;;;;;;;;22.60;99.90;;;;;;4589110;19;19927;-32
2022/07/26 05:22:58;;;;;;;;;;;22.60;99.90;;;;;;4592165;19;19918;-32
2022/07/26 05:24:29;;;;;;;;;;;22.60;99.90;;;;;;4590941;19;19919;-33
2022/07/26 05:25:59;;;;;;;;;;;22.70;99.90;;;;;;4592077;19;19922;-33
2022/07/26 05:27:30;;;;;;;;;;;22.70;99.90;;;;;;4591780;19;19925;-33
2022/07/26 05:29:01;;;;;;;;;;;22.70;99.90;;;;;;4591629;19;19910;-33
2022/07/26 05:30:32;;;;;;;;;;;22.70;99.90;;;;;;4590537;19;20238;-34
2022/07/26 05:32:03;;;;;;;;;;;22.70;99.90;;;;;;4588869;19;20318;-33
2022/07/26 05:33:34;;;;;;;;;;;22.80;99.90;;;;;;4590863;19;19929;-32
2022/07/26 05:35:06;;;;;;;;;;;22.80;99.90;;;;;;4591021;19;19990;-32
2022/07/26 05:36:37;;;;;;;;;;;22.80;99.90;;;;;;4590322;19;19922;-33
2022/07/26 05:38:08;;;;;;;;;;;22.70;99.90;;;;;;4591803;19;19919;-33
2022/07/26 05:39:38;;;;;;;;;;;22.80;99.90;;;;;;4591700;19;19915;-32
2022/07/26 05:41:09;;;;;;;;;;;22.80;99.90;;;;;;4590816;19;19929;-34
2022/07/26 05:42:40;;;;;;;;;;;22.80;99.90;;;;;;4591170;19;20328;-32
2022/07/26 05:44:11;;;;;;;;;;;22.90;99.90;;;;;;4591910;19;19931;-33
2022/07/26 05:45:42;;;;;;;;;;;22.90;99.90;;;;;;4591982;19;19941;-35
2022/07/26 05:47:13;;;;;;;;;;;22.90;99.90;;;;;;4590440;19;20325;-33
2022/07/26 05:48:44;;;;;;;;;;;22.90;99.90;;;;;;4589141;19;19947;-34
2022/07/26 05:50:15;;;;;;;;;;;22.90;99.90;;;;;;4589662;19;19923;-32
2022/07/26 05:51:46;;;;;;;;;;;22.90;99.90;;;;;;4590899;19;19918;-34
2022/07/26 05:53:17;;;;;;;;;;;23.00;99.90;;;;;;4591195;19;20333;-32
2022/07/26 05:54:48;;;;;;;;;;;23.00;99.90;;;;;;4590320;19;19926;-33
2022/07/26 05:56:19;;;;;;;;;;;23.00;99.90;;;;;;4591277;19;19919;-33
2022/07/26 05:57:50;;;;;;;;;;;23.00;99.90;;;;;;4590976;19;20367;-34
2022/07/26 05:59:21;;;;;;;;;;;23.10;99.90;;;;;;4589072;19;19926;-34
2022/07/26 06:00:52;;;;;;;;;;;23.10;99.90;;;;;;4590129;19;20339;-34
2022/07/26 06:02:23;;;;;;;;;;;23.10;99.90;;;;;;4591208;19;19938;-34
2022/07/26 06:03:54;;;;;;;;;;;23.10;99.90;;;;;;4589772;19;19922;-32
2022/07/26 06:05:25;;;;;;;;;;;23.10;99.90;;;;;;4590293;19;19915;-32
2022/07/26 06:06:56;;;;;;;;;;;23.10;99.90;;;;;;4590927;19;19919;-33
2022/07/26 06:08:27;;;;;;;;;;;23.10;99.90;;;;;;4591121;19;19933;-32
2022/07/26 06:09:58;;;;;;;;;;;23.10;99.90;;;;;;4589972;19;19922;-34
2022/07/26 06:11:29;;;;;;;;;;;23.20;99.90;;;;;;4589753;19;19952;-34
2022/07/26 06:13:00;;;;;;;;;;;23.20;99.90;;;;;;4590883;19;19914;-33
2022/07/26 06:14:31;;;;;;;;;;;23.20;99.90;;;;;;4590360;19;19918;-34
2022/07/26 06:16:02;;;;;;;;;;;23.20;99.90;;;;;;4591135;19;19978;-34
2022/07/26 06:17:33;;;;;;;;;;;23.30;99.90;;;;;;4589456;19;20328;-34
2022/07/26 06:19:04;;;;;;;;;;;23.30;99.90;;;;;;4589967;19;19911;-32
2022/07/26 06:20:39;;;;;;;;;;;23.30;99.90;;;;;;4590402;19;19929;-34
2022/07/26 06:22:09;;;;;;;;;;;23.30;99.90;;;;;;4590734;19;20343;-32
2022/07/26 06:23:41;;;;;;;;;;;23.30;99.90;;;;;;4590151;19;19922;-33
2022/07/26 06:25:12;;;;;;;;;;;23.30;99.90;;;;;;4591394;19;19974;-35
2022/07/26 06:26:43;;;;;;;;;;;23.30;99.90;;;;;;4590629;19;19915;-34
2022/07/26 06:28:14;;;;;;;;;;;23.30;99.90;;;;;;4590176;19;19922;-33
2022/07/26 06:29:47;;;;;;;;;;;23.30;99.90;;;;;;4590510;19;19927;-34
2022/07/26 06:31:18;;;;;;;;;;;23.40;99.90;;;;;;4589842;19;19922;-33
2022/07/26 06:32:49;;;;;;;;;;;23.50;99.90;;;;;;4590379;19;19975;-32
2022/07/26 06:34:20;;;;;;;;;;;23.50;99.90;;;;;;4589729;19;19933;-34
2022/07/26 06:35:51;;;;;;;;;;;23.40;99.90;;;;;;4590930;19;19915;-34
2022/07/26 06:37:22;;;;;;;;;;;23.40;99.90;;;;;;4594932;19;19942;-33
2022/07/26 06:38:53;;;;;;;;;;;23.40;99.90;;;;;;4594808;19;20198;-32
2022/07/26 06:40:24;;;;;;;;;;;23.50;99.90;;;;;;4595323;19;19918;-33
2022/07/26 06:41:55;;;;;;;;;;;23.50;99.90;;;;;;4591346;19;19926;-33
2022/07/26 06:43:26;;;;;;;;;;;23.50;99.90;;;;;;4593623;19;20244;-33
2022/07/26 06:44:58;;;;;;;;;;;23.50;99.90;;;;;;4594258;19;19911;-33
2022/07/26 06:46:29;;;;;;;;;;;23.50;99.90;;;;;;4595623;19;20271;-33
2022/07/26 06:48:00;;;;;;;;;;;23.60;99.90;;;;;;4591866;19;19931;-33
2022/07/26 06:49:31;;;;;;;;;;;23.70;99.90;;;;;;4594464;19;20337;-33
2022/07/26 06:51:02;;;;;;;;;;;23.60;99.90;;;;;;4595607;19;19911;-33
2022/07/26 06:52:33;;;;;;;;;;;23.70;99.90;;;;;;4596826;19;19918;-32
2022/07/26 06:54:04;;;;;;;;;;;23.60;99.90;;;;;;4595519;19;19918;-32
2022/07/26 06:55:35;;;;;;;;;;;23.70;99.90;;;;;;4596973;19;19941;-33
2022/07/26 06:57:06;;;;;;;;;;;23.80;99.90;;;;;;4593041;19;19919;-32
2022/07/26 06:58:37;;;;;;;;;;;23.80;99.90;;;;;;4592353;19;19931;-32
2022/07/26 07:00:09;;;;;;;;;;;23.50;99.90;;;;;;4592358;19;19926;-32
2022/07/26 07:01:40;;;;;;;;;;;23.20;99.90;;;;;;4591930;19;19927;-34
2022/07/26 07:03:11;;;;;;;;;;;23.20;99.90;;;;;;4592328;19;19941;-32
2022/07/26 07:04:42;;;;;;;;;;;23.00;99.90;;;;;;4594369;19;20327;-33
2022/07/26 07:06:13;;;;;;;;;;;22.90;99.90;;;;;;4593644;19;19935;-33
2022/07/26 07:07:44;;;;;;;;;;;22.80;99.90;;;;;;4595287;19;19911;-32
2022/07/26 07:09:15;;;;;;;;;;;22.70;99.90;;;;;;4592937;19;19947;-32
2022/07/26 07:10:46;;;;;;;;;;;22.60;99.90;;;;;;4593054;19;20328;-34
2022/07/26 07:12:17;;;;;;;;;;;22.50;99.90;;;;;;4592673;19;19944;-32
2022/07/26 07:13:48;;;;;;;;;;;22.50;99.90;;;;;;4593916;19;19919;-33
2022/07/26 07:15:19;;;;;;;;;;;22.50;99.90;;;;;;4594120;19;19919;-32
2022/07/26 07:16:50;;;;;;;;;;;22.50;99.90;;;;;;4593050;19;19970;-32
2022/07/26 07:18:21;;;;;;;;;;;22.50;99.90;;;;;;4594550;19;19936;-32
2022/07/26 07:19:52;;;;;;;;;;;22.50;99.90;;;;;;4592661;19;19923;-33
2022/07/26 07:21:24;;;;;;;;;;;22.40;99.90;;;;;;4592490;19;19919;-33
2022/07/26 07:22:55;;;;;;;;;;;22.40;99.90;;;;;;4593822;19;19934;-32
2022/07/26 07:24:26;;;;;;;;;;;22.30;99.90;;;;;;4594430;19;20371;-32
2022/07/26 07:25:57;;;;;;;;;;;22.20;99.90;;;;;;4594306;19;19922;-33
2022/07/26 07:27:28;;;;;;;;;;;22.10;99.90;;;;;;4592040;19;20262;-33
2022/07/26 07:28:59;;;;;;;;;;;22.00;99.90;;;;;;4594039;19;20334;-32
2022/07/26 07:30:30;;;;;;;;;;;22.00;99.90;;;;;;4594203;19;20240;-32
2022/07/26 07:32:01;;;;;;;;;;;22.10;99.90;;;;;;4593281;19;19970;-33
2022/07/26 07:33:32;;;;;;;;;;;22.00;99.90;;;;;;4592625;19;19937;-32
2022/07/26 07:35:03;;;;;;;;;;;21.90;99.90;;;;;;4594027;19;19928;-32
2022/07/26 07:36:34;;;;;;;;;;;21.90;99.90;;;;;;4594197;19;19986;-32
2022/07/26 07:38:05;;;;;;;;;;;21.90;99.90;;;;;;4593737;19;19915;-33
2022/07/26 07:39:36;;;;;;;;;;;21.90;99.90;;;;;;4594564;19;19918;-32
2022/07/26 07:41:07;;;;;;;;;;;22.00;99.90;;;;;;4592566;19;19937;-33
2022/07/26 07:42:38;;;;;;;;;;;22.00;99.90;;;;;;4593108;19;19970;-33
2022/07/26 07:44:09;;;;;;;;;;;22.00;99.90;;;;;;4593807;19;19915;-33
2022/07/26 07:45:40;;;;;;;;;;;22.00;99.90;;;;;;4594508;19;19922;-33
2022/07/26 07:47:11;;;;;;;;;;;22.00;99.90;;;;;;4593118;19;19922;-33
2022/07/26 07:48:42;;;;;;;;;;;22.10;99.90;;;;;;4592116;19;19941;-33
2022/07/26 07:50:13;;;;;;;;;;;22.20;99.90;;;;;;4595247;19;20374;-32
2022/07/26 07:51:44;;;;;;;;;;;22.30;99.90;;;;;;4592647;19;19995;-31
2022/07/26 07:53:15;;;;;;;;;;;22.20;99.90;;;;;;4592511;19;19911;-32
2022/07/26 07:54:46;;;;;;;;;;;22.00;99.90;;;;;;4593829;19;19936;-33
2022/07/26 07:56:17;;;;;;;;;;;21.90;99.90;;;;;;4593985;19;19923;-33
2022/07/26 07:57:48;;;;;;;;;;;21.90;99.90;;;;;;4592118;19;19911;-33
2022/07/26 07:59:19;;;;;;;;;;;21.90;99.90;;;;;;4593296;19;19927;-33
2022/07/26 08:00:50;;;;;;;;;;;21.90;99.90;;;;;;4592961;19;19911;-32
2022/07/26 08:02:21;;;;;;;;;;;21.90;99.90;;;;;;4593237;19;19923;-34
2022/07/26 08:03:52;;;;;;;;;;;22.00;99.90;;;;;;4594699;19;19919;-32
2022/07/26 08:05:23;;;;;;;;;;;22.00;99.90;;;;;;4593879;19;20340;-33
2022/07/26 08:06:54;;;;;;;;;;;22.00;99.90;;;;;;4592482;19;19915;-34
2022/07/26 08:08:25;;;;;;;;;;;22.00;99.90;;;;;;4593764;19;19907;-32
2022/07/26 08:09:56;;;;;;;;;;;22.00;99.90;;;;;;4594726;19;19932;-33
2022/07/26 08:11:28;;;;;;;;;;;22.10;99.90;;;;;;4593496;19;19919;-32
2022/07/26 08:12:59;;;;;;;;;;;22.10;99.90;;;;;;4593258;19;20335;-32
2022/07/26 08:14:30;;;;;;;;;;;22.10;99.90;;;;;;4592060;19;19917;-34
2022/07/26 08:16:01;;;;;;;;;;;22.00;99.90;;;;;;4592048;19;19907;-33
2022/07/26 08:17:32;;;;;;;;;;;22.00;99.90;;;;;;4592124;19;19938;-33
2022/07/26 08:19:03;;;;;;;;;;;22.10;99.90;;;;;;4593152;19;19923;-33
2022/07/26 08:20:34;;;;;;;;;;;22.00;99.90;;;;;;4593087;19;19915;-33
2022/07/26 08:22:07;;;;;;;;;;;22.00;99.90;;;;;;4590930;19;19914;-32
2022/07/26 08:23:37;;;;;;;;;;;22.10;99.90;;;;;;4593209;19;19947;-32
2022/07/26 08:25:09;;;;;;;;;;;22.20;99.90;;;;;;4595103;19;19997;-33
2022/07/26 08:26:39;;;;;;;;;;;22.20;99.90;;;;;;4593439;19;19907;-34
2022/07/26 08:28:12;;;;;;;;;;;22.30;99.90;;;;;;4590794;19;19922;-32
2022/07/26 08:29:45;;;;;;;;;;;22.40;99.90;;;;;;4592277;19;19922;-35
2022/07/26 08:31:19;;;;;;;;;;;22.40;99.90;;;;;;4593229;19;19986;-32
2022/07/26 08:32:50;;;;;;;;;;;22.20;99.90;;;;;;4591332;19;19933;-33
2022/07/26 08:34:21;;;;;;;;;;;22.20;99.90;;;;;;4592219;19;19919;-31
2022/07/26 08:35:52;;;;;;;;;;;22.20;99.90;;;;;;4588693;19;19923;-33
2022/07/26 08:37:24;;;;;;;;;;;22.10;99.90;;;;;;4592691;19;19923;-33
2022/07/26 08:38:54;;;;;;;;;;;22.00;99.90;;;;;;4592767;19;19914;-33
2022/07/26 08:40:25;;;;;;;;;;;21.90;99.90;;;;;;4591927;19;19921;-32
2022/07/26 08:41:56;;;;;;;;;;;21.80;99.90;;;;;;4589863;19;19919;-33
2022/07/26 08:43:28;;;;;;;;;;;21.70;99.90;;;;;;4592208;19;19930;-32
2022/07/26 08:44:59;;;;;;;;;;;21.60;99.90;;;;;;4592959;19;20255;-32
2022/07/26 08:46:31;;;;;;;;;;;21.60;99.90;;;;;;4592431;19;19932;-32
2022/07/26 08:48:02;;;;;;;;;;;21.50;99.90;;;;;;4590262;19;19942;-32
2022/07/26 08:49:33;;;;;;;;;;;21.50;99.90;;;;;;4592193;19;19918;-32
2022/07/26 08:51:07;;;;;;;;;;;21.50;99.90;;;;;;4589644;19;19915;-33
2022/07/26 08:52:39;;;;;;;;;;;21.60;99.90;;;;;;4590058;19;19915;-32
2022/07/26 08:54:11;;;;;;;;;;;21.60;99.90;;;;;;4591446;19;19926;-33